sensor_id;sensor_type;location;lat;lon;timestamp;P1;durP1;ratioP1;P2;durP2;ratioP2
75456;SDS011;64036;48.266;14.192;2023-04-03T00:00:10;4.10;;;2.50;;
75456;SDS011;64036;48.266;14.192;2023-04-03T00:02:47;4.20;;;2.30;;
75456;SDS011;64036;48.266;14.192;2023-04-03T00:05:23;4.90;;;2.50;;
75456;SDS011;64036;48.266;14.192;2023-04-03T00:07:51;3.80;;;2.50;;
75456;SDS011;64036;48.266;14.192;2023-04-03T00:10:20;3.60;;;2.10;;
75456;SDS011;64036;48.266;14.192;2023-04-03T00:12:51;3.30;;;2.00;;
75456;SDS011;64036;48.266;14.192;2023-04-03T00:15:25;4.50;;;2.60;;
75456;SDS011;64036;48.266;14.192;2023-04-03T00:17:51;2.80;;;2.00;;
75456;SDS011;64036;48.266;14.192;2023-04-03T00:20:17;4.00;;;2.00;;
75456;SDS011;64036;48.266;14.192;2023-04-03T00:22:43;3.10;;;2.20;;
75456;SDS011;64036;48.266;14.192;2023-04-03T00:25:22;3.20;;;2.30;;
75456;SDS011;64036;48.266;14.192;2023-04-03T00:27:48;4.50;;;2.20;;
75456;SDS011;64036;48.266;14.192;2023-04-03T00:30:16;2.50;;;1.80;;
75456;SDS011;64036;48.266;14.192;2023-04-03T00:32:47;3.80;;;2.40;;
75456;SDS011;64036;48.266;14.192;2023-04-03T00:35:17;4.60;;;2.90;;
75456;SDS011;64036;48.266;14.192;2023-04-03T00:38:07;3.90;;;2.30;;
75456;SDS011;64036;48.266;14.192;2023-04-03T00:40:47;3.30;;;2.20;;
75456;SDS011;64036;48.266;14.192;2023-04-03T00:43:25;4.30;;;2.50;;
75456;SDS011;64036;48.266;14.192;2023-04-03T00:45:57;3.70;;;2.60;;
75456;SDS011;64036;48.266;14.192;2023-04-03T00:48:55;4.90;;;2.60;;
75456;SDS011;64036;48.266;14.192;2023-04-03T00:51:26;3.90;;;2.60;;
75456;SDS011;64036;48.266;14.192;2023-04-03T00:53:55;3.90;;;2.30;;
75456;SDS011;64036;48.266;14.192;2023-04-03T00:56:27;4.00;;;2.40;;
75456;SDS011;64036;48.266;14.192;2023-04-03T00:59:16;4.60;;;2.70;;
75456;SDS011;64036;48.266;14.192;2023-04-03T01:01:53;4.70;;;2.70;;
75456;SDS011;64036;48.266;14.192;2023-04-03T01:04:41;4.80;;;2.70;;
75456;SDS011;64036;48.266;14.192;2023-04-03T01:07:23;3.90;;;2.50;;
75456;SDS011;64036;48.266;14.192;2023-04-03T01:09:56;4.10;;;2.60;;
75456;SDS011;64036;48.266;14.192;2023-04-03T01:12:30;3.70;;;2.40;;
75456;SDS011;64036;48.266;14.192;2023-04-03T01:15:00;5.40;;;2.70;;
75456;SDS011;64036;48.266;14.192;2023-04-03T01:17:35;2.80;;;1.80;;
75456;SDS011;64036;48.266;14.192;2023-04-03T01:23:20;4.30;;;2.60;;
75456;SDS011;64036;48.266;14.192;2023-04-03T01:26:16;4.10;;;2.80;;
75456;SDS011;64036;48.266;14.192;2023-04-03T01:28:54;3.70;;;2.20;;
75456;SDS011;64036;48.266;14.192;2023-04-03T01:31:31;4.20;;;2.60;;
75456;SDS011;64036;48.266;14.192;2023-04-03T01:34:29;3.70;;;2.30;;
75456;SDS011;64036;48.266;14.192;2023-04-03T01:37:39;3.40;;;2.40;;
75456;SDS011;64036;48.266;14.192;2023-04-03T01:40:20;4.90;;;2.40;;
75456;SDS011;64036;48.266;14.192;2023-04-03T01:42:46;4.60;;;2.90;;
75456;SDS011;64036;48.266;14.192;2023-04-03T01:45:26;4.10;;;2.60;;
75456;SDS011;64036;48.266;14.192;2023-04-03T01:47:57;4.70;;;2.50;;
75456;SDS011;64036;48.266;14.192;2023-04-03T01:50:25;4.10;;;2.40;;
75456;SDS011;64036;48.266;14.192;2023-04-03T01:52:51;4.60;;;2.30;;
75456;SDS011;64036;48.266;14.192;2023-04-03T01:55:18;5.70;;;2.80;;
75456;SDS011;64036;48.266;14.192;2023-04-03T01:57:43;3.30;;;2.20;;
75456;SDS011;64036;48.266;14.192;2023-04-03T02:00:23;4.40;;;2.60;;
75456;SDS011;64036;48.266;14.192;2023-04-03T02:02:54;3.70;;;2.40;;
75456;SDS011;64036;48.266;14.192;2023-04-03T02:05:23;3.80;;;2.00;;
75456;SDS011;64036;48.266;14.192;2023-04-03T02:08:01;3.20;;;2.10;;
75456;SDS011;64036;48.266;14.192;2023-04-03T02:10:27;3.30;;;2.00;;
75456;SDS011;64036;48.266;14.192;2023-04-03T02:12:53;5.20;;;2.30;;
75456;SDS011;64036;48.266;14.192;2023-04-03T02:15:19;3.00;;;2.10;;
75456;SDS011;64036;48.266;14.192;2023-04-03T02:20:28;4.90;;;2.90;;
75456;SDS011;64036;48.266;14.192;2023-04-03T02:23:14;5.40;;;2.80;;
75456;SDS011;64036;48.266;14.192;2023-04-03T02:25:42;4.60;;;2.50;;
75456;SDS011;64036;48.266;14.192;2023-04-03T02:28:08;4.60;;;2.90;;
75456;SDS011;64036;48.266;14.192;2023-04-03T02:30:39;4.70;;;2.20;;
75456;SDS011;64036;48.266;14.192;2023-04-03T02:33:08;3.20;;;2.00;;
75456;SDS011;64036;48.266;14.192;2023-04-03T02:35:34;3.10;;;2.20;;
75456;SDS011;64036;48.266;14.192;2023-04-03T02:38:02;4.50;;;2.30;;
75456;SDS011;64036;48.266;14.192;2023-04-03T02:40:37;3.10;;;1.90;;
75456;SDS011;64036;48.266;14.192;2023-04-03T02:43:24;4.10;;;2.20;;
75456;SDS011;64036;48.266;14.192;2023-04-03T02:45:50;3.30;;;2.00;;
75456;SDS011;64036;48.266;14.192;2023-04-03T02:48:32;2.80;;;2.00;;
75456;SDS011;64036;48.266;14.192;2023-04-03T02:51:05;4.10;;;2.50;;
75456;SDS011;64036;48.266;14.192;2023-04-03T02:53:38;4.20;;;2.20;;
75456;SDS011;64036;48.266;14.192;2023-04-03T02:56:07;3.20;;;1.70;;
75456;SDS011;64036;48.266;14.192;2023-04-03T02:58:46;2.70;;;1.90;;
75456;SDS011;64036;48.266;14.192;2023-04-03T03:01:15;4.00;;;2.10;;
75456;SDS011;64036;48.266;14.192;2023-04-03T03:03:40;3.10;;;2.10;;
75456;SDS011;64036;48.266;14.192;2023-04-03T03:06:16;3.50;;;2.30;;
75456;SDS011;64036;48.266;14.192;2023-04-03T03:08:44;2.20;;;1.60;;
75456;SDS011;64036;48.266;14.192;2023-04-03T03:11:13;2.30;;;1.70;;
75456;SDS011;64036;48.266;14.192;2023-04-03T03:13:56;2.30;;;1.70;;
75456;SDS011;64036;48.266;14.192;2023-04-03T03:16:32;3.70;;;2.20;;
75456;SDS011;64036;48.266;14.192;2023-04-03T03:18:58;3.30;;;2.20;;
75456;SDS011;64036;48.266;14.192;2023-04-03T03:21:27;4.30;;;2.20;;
75456;SDS011;64036;48.266;14.192;2023-04-03T03:24:24;3.40;;;2.20;;
75456;SDS011;64036;48.266;14.192;2023-04-03T03:29:44;3.70;;;2.50;;
75456;SDS011;64036;48.266;14.192;2023-04-03T03:32:30;3.80;;;2.20;;
75456;SDS011;64036;48.266;14.192;2023-04-03T03:34:56;3.60;;;2.30;;
75456;SDS011;64036;48.266;14.192;2023-04-03T03:40:03;3.90;;;2.30;;
75456;SDS011;64036;48.266;14.192;2023-04-03T03:42:30;4.80;;;2.40;;
75456;SDS011;64036;48.266;14.192;2023-04-03T03:44:55;3.70;;;2.60;;
75456;SDS011;64036;48.266;14.192;2023-04-03T03:47:24;3.40;;;2.20;;
75456;SDS011;64036;48.266;14.192;2023-04-03T03:49:59;2.60;;;1.90;;
75456;SDS011;64036;48.266;14.192;2023-04-03T03:52:27;3.60;;;2.50;;
75456;SDS011;64036;48.266;14.192;2023-04-03T03:54:56;4.00;;;2.40;;
75456;SDS011;64036;48.266;14.192;2023-04-03T03:57:30;4.50;;;2.50;;
75456;SDS011;64036;48.266;14.192;2023-04-03T04:00:05;5.10;;;2.60;;
75456;SDS011;64036;48.266;14.192;2023-04-03T04:02:54;3.90;;;2.40;;
75456;SDS011;64036;48.266;14.192;2023-04-03T04:05:31;5.20;;;2.60;;
75456;SDS011;64036;48.266;14.192;2023-04-03T04:07:57;3.80;;;2.30;;
75456;SDS011;64036;48.266;14.192;2023-04-03T04:10:25;3.80;;;2.30;;
75456;SDS011;64036;48.266;14.192;2023-04-03T04:13:00;5.50;;;2.50;;
75456;SDS011;64036;48.266;14.192;2023-04-03T04:15:28;5.40;;;2.70;;
75456;SDS011;64036;48.266;14.192;2023-04-03T04:17:59;4.70;;;2.50;;
75456;SDS011;64036;48.266;14.192;2023-04-03T04:20:28;3.60;;;2.20;;
75456;SDS011;64036;48.266;14.192;2023-04-03T04:23:02;4.10;;;2.30;;
75456;SDS011;64036;48.266;14.192;2023-04-03T04:25:27;3.90;;;2.30;;
75456;SDS011;64036;48.266;14.192;2023-04-03T04:27:59;5.10;;;2.50;;
75456;SDS011;64036;48.266;14.192;2023-04-03T04:30:43;3.60;;;2.20;;
75456;SDS011;64036;48.266;14.192;2023-04-03T04:33:14;5.40;;;2.70;;
75456;SDS011;64036;48.266;14.192;2023-04-03T04:35:48;3.30;;;2.10;;
75456;SDS011;64036;48.266;14.192;2023-04-03T04:38:16;3.40;;;2.20;;
75456;SDS011;64036;48.266;14.192;2023-04-03T04:40:44;4.40;;;2.60;;
75456;SDS011;64036;48.266;14.192;2023-04-03T04:43:10;3.60;;;2.40;;
75456;SDS011;64036;48.266;14.192;2023-04-03T04:45:42;4.00;;;2.40;;
75456;SDS011;64036;48.266;14.192;2023-04-03T04:48:21;4.10;;;2.50;;
75456;SDS011;64036;48.266;14.192;2023-04-03T04:50:50;4.60;;;2.40;;
75456;SDS011;64036;48.266;14.192;2023-04-03T04:53:31;4.00;;;2.30;;
75456;SDS011;64036;48.266;14.192;2023-04-03T04:55:59;3.40;;;2.10;;
75456;SDS011;64036;48.266;14.192;2023-04-03T04:58:30;4.90;;;3.00;;
75456;SDS011;64036;48.266;14.192;2023-04-03T05:01:09;4.30;;;2.80;;
75456;SDS011;64036;48.266;14.192;2023-04-03T05:03:38;3.50;;;1.90;;
75456;SDS011;64036;48.266;14.192;2023-04-03T05:06:26;3.60;;;2.10;;
75456;SDS011;64036;48.266;14.192;2023-04-03T05:09:20;4.50;;;2.70;;
75456;SDS011;64036;48.266;14.192;2023-04-03T05:12:22;3.40;;;2.10;;
75456;SDS011;64036;48.266;14.192;2023-04-03T05:15:33;4.20;;;2.50;;
75456;SDS011;64036;48.266;14.192;2023-04-03T05:18:01;4.00;;;2.60;;
75456;SDS011;64036;48.266;14.192;2023-04-03T05:20:37;4.10;;;2.50;;
75456;SDS011;64036;48.266;14.192;2023-04-03T05:23:02;4.90;;;2.80;;
75456;SDS011;64036;48.266;14.192;2023-04-03T05:25:31;4.20;;;2.40;;
75456;SDS011;64036;48.266;14.192;2023-04-03T05:28:28;4.70;;;2.60;;
75456;SDS011;64036;48.266;14.192;2023-04-03T05:31:04;4.40;;;2.60;;
75456;SDS011;64036;48.266;14.192;2023-04-03T05:33:29;4.30;;;2.40;;
75456;SDS011;64036;48.266;14.192;2023-04-03T05:36:11;7.40;;;2.90;;
75456;SDS011;64036;48.266;14.192;2023-04-03T05:38:40;4.60;;;2.60;;
75456;SDS011;64036;48.266;14.192;2023-04-03T05:41:15;3.90;;;2.50;;
75456;SDS011;64036;48.266;14.192;2023-04-03T05:43:44;4.20;;;2.40;;
75456;SDS011;64036;48.266;14.192;2023-04-03T05:46:16;4.20;;;2.30;;
75456;SDS011;64036;48.266;14.192;2023-04-03T05:48:43;4.20;;;2.60;;
75456;SDS011;64036;48.266;14.192;2023-04-03T05:51:25;4.00;;;2.10;;
75456;SDS011;64036;48.266;14.192;2023-04-03T05:54:22;3.00;;;2.00;;
75456;SDS011;64036;48.266;14.192;2023-04-03T05:57:01;4.00;;;2.30;;
75456;SDS011;64036;48.266;14.192;2023-04-03T06:02:16;4.60;;;2.70;;
75456;SDS011;64036;48.266;14.192;2023-04-03T06:04:59;5.40;;;2.60;;
75456;SDS011;64036;48.266;14.192;2023-04-03T06:08:04;4.70;;;2.70;;
75456;SDS011;64036;48.266;14.192;2023-04-03T06:10:42;4.10;;;2.30;;
75456;SDS011;64036;48.266;14.192;2023-04-03T06:13:11;4.40;;;2.50;;
75456;SDS011;64036;48.266;14.192;2023-04-03T06:15:37;4.70;;;2.70;;
75456;SDS011;64036;48.266;14.192;2023-04-03T06:18:06;5.30;;;2.90;;
75456;SDS011;64036;48.266;14.192;2023-04-03T06:20:32;5.60;;;2.80;;
75456;SDS011;64036;48.266;14.192;2023-04-03T06:23:03;4.80;;;2.90;;
75456;SDS011;64036;48.266;14.192;2023-04-03T06:25:29;4.20;;;3.00;;
75456;SDS011;64036;48.266;14.192;2023-04-03T06:27:59;4.60;;;2.80;;
75456;SDS011;64036;48.266;14.192;2023-04-03T06:30:26;6.40;;;3.20;;
75456;SDS011;64036;48.266;14.192;2023-04-03T06:33:03;3.80;;;2.40;;
75456;SDS011;64036;48.266;14.192;2023-04-03T06:35:36;3.70;;;2.30;;
75456;SDS011;64036;48.266;14.192;2023-04-03T06:38:06;4.70;;;2.70;;
75456;SDS011;64036;48.266;14.192;2023-04-03T06:40:35;6.30;;;2.40;;
75456;SDS011;64036;48.266;14.192;2023-04-03T06:43:08;5.40;;;2.60;;
75456;SDS011;64036;48.266;14.192;2023-04-03T06:45:34;3.70;;;2.40;;
75456;SDS011;64036;48.266;14.192;2023-04-03T06:48:02;3.70;;;2.20;;
75456;SDS011;64036;48.266;14.192;2023-04-03T06:50:31;5.70;;;2.20;;
75456;SDS011;64036;48.266;14.192;2023-04-03T06:53:04;4.30;;;2.00;;
75456;SDS011;64036;48.266;14.192;2023-04-03T06:55:31;4.50;;;2.30;;
75456;SDS011;64036;48.266;14.192;2023-04-03T07:02:16;3.30;;;2.10;;
75456;SDS011;64036;48.266;14.192;2023-04-03T07:04:48;3.40;;;2.10;;
75456;SDS011;64036;48.266;14.192;2023-04-03T07:07:14;2.60;;;1.90;;
75456;SDS011;64036;48.266;14.192;2023-04-03T07:10:06;5.30;;;2.00;;
75456;SDS011;64036;48.266;14.192;2023-04-03T07:12:35;2.60;;;2.00;;
75456;SDS011;64036;48.266;14.192;2023-04-03T07:15:07;3.80;;;2.20;;
75456;SDS011;64036;48.266;14.192;2023-04-03T07:17:59;3.80;;;2.20;;
75456;SDS011;64036;48.266;14.192;2023-04-03T07:20:24;4.00;;;2.20;;
75456;SDS011;64036;48.266;14.192;2023-04-03T07:22:52;5.30;;;2.20;;
75456;SDS011;64036;48.266;14.192;2023-04-03T07:25:17;3.40;;;1.90;;
75456;SDS011;64036;48.266;14.192;2023-04-03T07:27:46;3.80;;;2.40;;
75456;SDS011;64036;48.266;14.192;2023-04-03T07:30:12;3.50;;;2.30;;
75456;SDS011;64036;48.266;14.192;2023-04-03T07:32:39;4.70;;;2.40;;
75456;SDS011;64036;48.266;14.192;2023-04-03T07:35:15;3.40;;;2.10;;
75456;SDS011;64036;48.266;14.192;2023-04-03T07:38:02;6.20;;;3.30;;
75456;SDS011;64036;48.266;14.192;2023-04-03T07:40:30;6.10;;;2.60;;
75456;SDS011;64036;48.266;14.192;2023-04-03T07:42:56;5.10;;;2.80;;
75456;SDS011;64036;48.266;14.192;2023-04-03T07:45:25;4.10;;;2.40;;
75456;SDS011;64036;48.266;14.192;2023-04-03T07:47:57;3.90;;;2.50;;
75456;SDS011;64036;48.266;14.192;2023-04-03T07:50:23;4.40;;;2.40;;
75456;SDS011;64036;48.266;14.192;2023-04-03T07:52:49;4.50;;;2.30;;
75456;SDS011;64036;48.266;14.192;2023-04-03T07:58:17;4.80;;;2.60;;
75456;SDS011;64036;48.266;14.192;2023-04-03T08:00:46;4.30;;;2.20;;
75456;SDS011;64036;48.266;14.192;2023-04-03T08:03:21;4.70;;;2.30;;
75456;SDS011;64036;48.266;14.192;2023-04-03T08:09:07;4.90;;;2.30;;
75456;SDS011;64036;48.266;14.192;2023-04-03T08:11:33;4.40;;;2.10;;
75456;SDS011;64036;48.266;14.192;2023-04-03T08:13:59;3.70;;;2.20;;
75456;SDS011;64036;48.266;14.192;2023-04-03T08:16:30;4.00;;;2.60;;
75456;SDS011;64036;48.266;14.192;2023-04-03T08:18:58;3.90;;;2.30;;
75456;SDS011;64036;48.266;14.192;2023-04-03T08:21:30;4.60;;;2.30;;
75456;SDS011;64036;48.266;14.192;2023-04-03T08:23:59;4.30;;;2.30;;
75456;SDS011;64036;48.266;14.192;2023-04-03T08:26:47;4.00;;;2.20;;
75456;SDS011;64036;48.266;14.192;2023-04-03T08:29:13;3.20;;;2.00;;
75456;SDS011;64036;48.266;14.192;2023-04-03T08:31:39;3.70;;;2.10;;
75456;SDS011;64036;48.266;14.192;2023-04-03T08:34:12;4.60;;;2.40;;
75456;SDS011;64036;48.266;14.192;2023-04-03T08:36:39;2.90;;;1.90;;
75456;SDS011;64036;48.266;14.192;2023-04-03T08:39:05;3.80;;;2.00;;
75456;SDS011;64036;48.266;14.192;2023-04-03T08:41:38;3.40;;;2.10;;
75456;SDS011;64036;48.266;14.192;2023-04-03T08:44:25;5.00;;;2.10;;
75456;SDS011;64036;48.266;14.192;2023-04-03T08:49:59;5.70;;;2.20;;
75456;SDS011;64036;48.266;14.192;2023-04-03T08:52:44;3.80;;;2.10;;
75456;SDS011;64036;48.266;14.192;2023-04-03T08:58:20;2.80;;;1.70;;
75456;SDS011;64036;48.266;14.192;2023-04-03T09:00:51;3.40;;;1.70;;
75456;SDS011;64036;48.266;14.192;2023-04-03T09:03:40;4.30;;;1.80;;
75456;SDS011;64036;48.266;14.192;2023-04-03T09:06:29;4.50;;;2.00;;
75456;SDS011;64036;48.266;14.192;2023-04-03T09:12:06;3.50;;;1.70;;
75456;SDS011;64036;48.266;14.192;2023-04-03T09:15:18;3.30;;;1.80;;
75456;SDS011;64036;48.266;14.192;2023-04-03T09:18:30;3.80;;;2.00;;
75456;SDS011;64036;48.266;14.192;2023-04-03T09:21:12;3.80;;;2.20;;
75456;SDS011;64036;48.266;14.192;2023-04-03T09:23:52;4.00;;;1.90;;
75456;SDS011;64036;48.266;14.192;2023-04-03T09:26:21;4.10;;;1.80;;
75456;SDS011;64036;48.266;14.192;2023-04-03T09:28:54;3.60;;;1.90;;
75456;SDS011;64036;48.266;14.192;2023-04-03T09:31:25;2.40;;;1.70;;
75456;SDS011;64036;48.266;14.192;2023-04-03T09:34:02;3.70;;;1.70;;
75456;SDS011;64036;48.266;14.192;2023-04-03T09:36:46;3.30;;;1.90;;
75456;SDS011;64036;48.266;14.192;2023-04-03T09:39:16;2.50;;;1.70;;
75456;SDS011;64036;48.266;14.192;2023-04-03T09:41:57;2.40;;;1.60;;
75456;SDS011;64036;48.266;14.192;2023-04-03T09:44:39;4.20;;;2.00;;
75456;SDS011;64036;48.266;14.192;2023-04-03T09:47:24;3.70;;;1.90;;
75456;SDS011;64036;48.266;14.192;2023-04-03T09:52:45;3.70;;;1.70;;
75456;SDS011;64036;48.266;14.192;2023-04-03T09:55:23;3.00;;;1.70;;
75456;SDS011;64036;48.266;14.192;2023-04-03T09:57:59;5.80;;;1.90;;
75456;SDS011;64036;48.266;14.192;2023-04-03T10:03:03;3.40;;;1.60;;
75456;SDS011;64036;48.266;14.192;2023-04-03T10:05:40;3.10;;;1.70;;
75456;SDS011;64036;48.266;14.192;2023-04-03T10:10:46;3.90;;;2.10;;
75456;SDS011;64036;48.266;14.192;2023-04-03T10:13:16;5.20;;;1.70;;
75456;SDS011;64036;48.266;14.192;2023-04-03T10:18:49;3.00;;;1.90;;
75456;SDS011;64036;48.266;14.192;2023-04-03T10:21:50;2.60;;;1.60;;
75456;SDS011;64036;48.266;14.192;2023-04-03T10:24:30;4.10;;;2.10;;
75456;SDS011;64036;48.266;14.192;2023-04-03T10:31:00;3.40;;;1.70;;
75456;SDS011;64036;48.266;14.192;2023-04-03T10:39:12;3.70;;;1.90;;
75456;SDS011;64036;48.266;14.192;2023-04-03T10:41:55;3.50;;;1.80;;
75456;SDS011;64036;48.266;14.192;2023-04-03T10:44:36;2.60;;;1.70;;
75456;SDS011;64036;48.266;14.192;2023-04-03T10:56:12;2.70;;;1.80;;
75456;SDS011;64036;48.266;14.192;2023-04-03T10:58:54;3.40;;;1.90;;
75456;SDS011;64036;48.266;14.192;2023-04-03T11:01:30;3.00;;;1.80;;
75456;SDS011;64036;48.266;14.192;2023-04-03T11:04:04;3.40;;;1.80;;
75456;SDS011;64036;48.266;14.192;2023-04-03T11:06:41;2.90;;;1.90;;
75456;SDS011;64036;48.266;14.192;2023-04-03T11:09:38;2.50;;;1.50;;
75456;SDS011;64036;48.266;14.192;2023-04-03T11:12:43;3.00;;;1.60;;
75456;SDS011;64036;48.266;14.192;2023-04-03T11:15:17;2.90;;;1.70;;
75456;SDS011;64036;48.266;14.192;2023-04-03T11:18:00;3.80;;;2.10;;
75456;SDS011;64036;48.266;14.192;2023-04-03T11:20:36;3.50;;;1.80;;
75456;SDS011;64036;48.266;14.192;2023-04-03T11:23:06;3.50;;;1.70;;
75456;SDS011;64036;48.266;14.192;2023-04-03T11:25:46;4.10;;;2.00;;
75456;SDS011;64036;48.266;14.192;2023-04-03T11:28:18;4.10;;;2.30;;
75456;SDS011;64036;48.266;14.192;2023-04-03T11:36:48;4.80;;;1.90;;
75456;SDS011;64036;48.266;14.192;2023-04-03T11:42:34;3.00;;;1.60;;
75456;SDS011;64036;48.266;14.192;2023-04-03T11:45:54;3.80;;;2.20;;
75456;SDS011;64036;48.266;14.192;2023-04-03T11:48:44;4.60;;;2.10;;
75456;SDS011;64036;48.266;14.192;2023-04-03T11:53:45;4.40;;;2.20;;
75456;SDS011;64036;48.266;14.192;2023-04-03T11:56:50;3.50;;;2.10;;
75456;SDS011;64036;48.266;14.192;2023-04-03T11:59:27;3.80;;;2.00;;
75456;SDS011;64036;48.266;14.192;2023-04-03T12:02:42;5.00;;;2.10;;
75456;SDS011;64036;48.266;14.192;2023-04-03T12:05:28;2.60;;;1.60;;
75456;SDS011;64036;48.266;14.192;2023-04-03T12:08:25;3.90;;;2.00;;
75456;SDS011;64036;48.266;14.192;2023-04-03T12:11:30;3.40;;;2.00;;
75456;SDS011;64036;48.266;14.192;2023-04-03T12:16:41;3.10;;;1.90;;
75456;SDS011;64036;48.266;14.192;2023-04-03T12:29:37;2.90;;;1.70;;
75456;SDS011;64036;48.266;14.192;2023-04-03T12:32:17;2.80;;;1.90;;
75456;SDS011;64036;48.266;14.192;2023-04-03T12:35:30;4.50;;;1.90;;
75456;SDS011;64036;48.266;14.192;2023-04-03T12:38:52;5.30;;;1.90;;
75456;SDS011;64036;48.266;14.192;2023-04-03T12:41:58;3.20;;;2.00;;
75456;SDS011;64036;48.266;14.192;2023-04-03T12:44:44;3.50;;;2.10;;
75456;SDS011;64036;48.266;14.192;2023-04-03T12:47:27;4.30;;;2.00;;
75456;SDS011;64036;48.266;14.192;2023-04-03T12:49:59;3.20;;;1.70;;
75456;SDS011;64036;48.266;14.192;2023-04-03T12:52:59;2.30;;;1.70;;
75456;SDS011;64036;48.266;14.192;2023-04-03T12:55:28;3.60;;;2.00;;
75456;SDS011;64036;48.266;14.192;2023-04-03T12:57:53;3.40;;;2.10;;
75456;SDS011;64036;48.266;14.192;2023-04-03T13:03:21;3.40;;;1.80;;
75456;SDS011;64036;48.266;14.192;2023-04-03T13:06:22;3.50;;;1.90;;
75456;SDS011;64036;48.266;14.192;2023-04-03T13:09:14;3.40;;;2.10;;
75456;SDS011;64036;48.266;14.192;2023-04-03T13:12:00;3.40;;;1.90;;
75456;SDS011;64036;48.266;14.192;2023-04-03T13:14:50;4.90;;;2.00;;
75456;SDS011;64036;48.266;14.192;2023-04-03T13:17:18;3.00;;;1.90;;
75456;SDS011;64036;48.266;14.192;2023-04-03T13:19:49;5.10;;;2.10;;
75456;SDS011;64036;48.266;14.192;2023-04-03T13:22:38;3.00;;;2.00;;
75456;SDS011;64036;48.266;14.192;2023-04-03T13:25:13;2.70;;;1.70;;
75456;SDS011;64036;48.266;14.192;2023-04-03T13:27:40;3.30;;;1.90;;
75456;SDS011;64036;48.266;14.192;2023-04-03T13:34:05;3.40;;;2.10;;
75456;SDS011;64036;48.266;14.192;2023-04-03T13:36:57;3.30;;;1.90;;
75456;SDS011;64036;48.266;14.192;2023-04-03T13:39:35;2.70;;;1.80;;
75456;SDS011;64036;48.266;14.192;2023-04-03T13:42:25;3.40;;;2.10;;
75456;SDS011;64036;48.266;14.192;2023-04-03T13:45:31;2.30;;;1.70;;
75456;SDS011;64036;48.266;14.192;2023-04-03T13:51:02;3.20;;;1.90;;
75456;SDS011;64036;48.266;14.192;2023-04-03T13:53:59;3.10;;;2.00;;
75456;SDS011;64036;48.266;14.192;2023-04-03T13:56:41;2.60;;;1.80;;
75456;SDS011;64036;48.266;14.192;2023-04-03T13:59:32;3.60;;;1.90;;
75456;SDS011;64036;48.266;14.192;2023-04-03T14:02:19;3.20;;;1.90;;
75456;SDS011;64036;48.266;14.192;2023-04-03T14:05:02;3.90;;;2.00;;
75456;SDS011;64036;48.266;14.192;2023-04-03T14:07:39;3.90;;;2.10;;
75456;SDS011;64036;48.266;14.192;2023-04-03T14:13:00;4.60;;;2.30;;
75456;SDS011;64036;48.266;14.192;2023-04-03T14:15:46;4.00;;;2.20;;
75456;SDS011;64036;48.266;14.192;2023-04-03T14:18:22;3.50;;;2.10;;
75456;SDS011;64036;48.266;14.192;2023-04-03T14:21:00;3.10;;;1.90;;
75456;SDS011;64036;48.266;14.192;2023-04-03T14:23:39;3.50;;;2.10;;
75456;SDS011;64036;48.266;14.192;2023-04-03T14:26:21;5.00;;;2.00;;
75456;SDS011;64036;48.266;14.192;2023-04-03T14:29:03;3.30;;;2.10;;
75456;SDS011;64036;48.266;14.192;2023-04-03T14:31:50;3.60;;;2.10;;
75456;SDS011;64036;48.266;14.192;2023-04-03T14:34:25;4.00;;;2.40;;
75456;SDS011;64036;48.266;14.192;2023-04-03T14:37:02;4.90;;;2.20;;
75456;SDS011;64036;48.266;14.192;2023-04-03T14:39:43;4.50;;;2.20;;
75456;SDS011;64036;48.266;14.192;2023-04-03T14:42:28;3.70;;;2.10;;
75456;SDS011;64036;48.266;14.192;2023-04-03T14:45:09;5.50;;;2.20;;
75456;SDS011;64036;48.266;14.192;2023-04-03T14:47:54;3.00;;;2.10;;
75456;SDS011;64036;48.266;14.192;2023-04-03T14:50:25;3.60;;;2.20;;
75456;SDS011;64036;48.266;14.192;2023-04-03T14:52:55;3.10;;;1.80;;
75456;SDS011;64036;48.266;14.192;2023-04-03T14:55:24;5.00;;;2.10;;
75456;SDS011;64036;48.266;14.192;2023-04-03T14:57:51;3.30;;;2.10;;
75456;SDS011;64036;48.266;14.192;2023-04-03T15:00:20;5.20;;;2.20;;
75456;SDS011;64036;48.266;14.192;2023-04-03T15:02:55;3.20;;;2.00;;
75456;SDS011;64036;48.266;14.192;2023-04-03T15:05:31;4.20;;;2.10;;
75456;SDS011;64036;48.266;14.192;2023-04-03T15:08:23;4.40;;;2.40;;
75456;SDS011;64036;48.266;14.192;2023-04-03T15:10:51;4.90;;;2.20;;
75456;SDS011;64036;48.266;14.192;2023-04-03T15:13:42;4.70;;;2.20;;
75456;SDS011;64036;48.266;14.192;2023-04-03T15:16:28;3.50;;;2.20;;
75456;SDS011;64036;48.266;14.192;2023-04-03T15:19:14;5.00;;;2.30;;
75456;SDS011;64036;48.266;14.192;2023-04-03T15:21:57;2.70;;;1.90;;
75456;SDS011;64036;48.266;14.192;2023-04-03T15:24:45;3.50;;;1.90;;
75456;SDS011;64036;48.266;14.192;2023-04-03T15:27:30;2.90;;;1.80;;
75456;SDS011;64036;48.266;14.192;2023-04-03T15:30:16;5.20;;;2.10;;
75456;SDS011;64036;48.266;14.192;2023-04-03T15:32:59;4.10;;;2.10;;
75456;SDS011;64036;48.266;14.192;2023-04-03T15:35:41;4.50;;;2.30;;
75456;SDS011;64036;48.266;14.192;2023-04-03T15:38:25;3.90;;;2.30;;
75456;SDS011;64036;48.266;14.192;2023-04-03T15:41:19;4.90;;;2.50;;
75456;SDS011;64036;48.266;14.192;2023-04-03T15:44:11;3.40;;;2.10;;
75456;SDS011;64036;48.266;14.192;2023-04-03T15:47:01;3.60;;;2.10;;
75456;SDS011;64036;48.266;14.192;2023-04-03T15:50:08;3.00;;;1.90;;
75456;SDS011;64036;48.266;14.192;2023-04-03T15:53:03;3.10;;;2.10;;
75456;SDS011;64036;48.266;14.192;2023-04-03T15:55:58;6.00;;;2.40;;
75456;SDS011;64036;48.266;14.192;2023-04-03T15:58:30;6.70;;;2.70;;
75456;SDS011;64036;48.266;14.192;2023-04-03T16:00:58;6.00;;;2.20;;
75456;SDS011;64036;48.266;14.192;2023-04-03T16:03:24;4.40;;;2.40;;
75456;SDS011;64036;48.266;14.192;2023-04-03T16:05:55;6.30;;;2.50;;
75456;SDS011;64036;48.266;14.192;2023-04-03T16:08:55;4.10;;;2.50;;
75456;SDS011;64036;48.266;14.192;2023-04-03T16:11:50;3.30;;;2.20;;
75456;SDS011;64036;48.266;14.192;2023-04-03T16:15:05;4.30;;;2.30;;
75456;SDS011;64036;48.266;14.192;2023-04-03T16:17:45;5.10;;;2.40;;
75456;SDS011;64036;48.266;14.192;2023-04-03T16:24:43;3.70;;;2.50;;
75456;SDS011;64036;48.266;14.192;2023-04-03T16:37:29;3.60;;;2.20;;
75456;SDS011;64036;48.266;14.192;2023-04-03T16:40:23;4.90;;;2.30;;
75456;SDS011;64036;48.266;14.192;2023-04-03T16:43:31;4.10;;;2.30;;
75456;SDS011;64036;48.266;14.192;2023-04-03T16:47:11;4.40;;;2.20;;
75456;SDS011;64036;48.266;14.192;2023-04-03T16:53:18;5.00;;;2.20;;
75456;SDS011;64036;48.266;14.192;2023-04-03T16:56:15;4.70;;;2.00;;
75456;SDS011;64036;48.266;14.192;2023-04-03T17:02:50;3.60;;;1.80;;
75456;SDS011;64036;48.266;14.192;2023-04-03T17:05:36;3.80;;;2.00;;
75456;SDS011;64036;48.266;14.192;2023-04-03T17:08:58;3.80;;;2.00;;
75456;SDS011;64036;48.266;14.192;2023-04-03T17:12:18;3.00;;;1.90;;
75456;SDS011;64036;48.266;14.192;2023-04-03T17:15:02;4.20;;;2.10;;
75456;SDS011;64036;48.266;14.192;2023-04-03T17:24:34;2.80;;;1.90;;
75456;SDS011;64036;48.266;14.192;2023-04-03T17:31:26;4.30;;;2.20;;
75456;SDS011;64036;48.266;14.192;2023-04-03T17:34:20;3.60;;;2.20;;
75456;SDS011;64036;48.266;14.192;2023-04-03T17:41:11;4.10;;;2.40;;
75456;SDS011;64036;48.266;14.192;2023-04-03T17:44:04;3.30;;;2.40;;
75456;SDS011;64036;48.266;14.192;2023-04-03T17:47:30;5.20;;;2.60;;
75456;SDS011;64036;48.266;14.192;2023-04-03T17:50:28;3.70;;;2.10;;
75456;SDS011;64036;48.266;14.192;2023-04-03T17:54:04;4.10;;;2.20;;
75456;SDS011;64036;48.266;14.192;2023-04-03T18:00:11;4.80;;;2.50;;